Airfield :
LOGIN :

Register | Disclaimer

   EN    FR    IT 

 










Legend :    VFR   Marginal VFR   IFR   Intensive IFR   Very Intensive IFR
Visi :
Ceiling :
>= 8 km
>= 3000ft
5 to 8 km
1000 to 3000 ft
1500m to 5 km
500 to 1000 ft
800 to 1500m
200 to 500 ft
< 800m
< 200 ft
Symbols :   Thunderstorms  Fog  Heavy snow  Heavy precipitations  Wind > 20 kt
SIGMETs :     Misc.  Thunderstorms  Icing  Turbulence  Mountain Waves  Volcanic Ashes







- Airport Elevation : 41 ft


LIRE - Pratica di Mare Air Base Pomezia

CURRENT METAR :
  • 142355Z 18005KT 9999 SCT020 BKN040 15/13 Q1011 RMK OVC VIS MIN 9999 WIND THR13 22005KT WIND THR31 18004KT BLU

EXPIRED METARs :
  • 142255Z 22008KT 8000 -RA SCT020 BKN030 14/13 Q1012 RMK OVC VIS MIN 8000 WIND THR13 22007KT WIND THR31 22007KT BLU
  • 142155Z 12004KT 9999 FEW025 BKN040 14/13 Q1012 RMK OVC VIS MIN 9999 WIND THR13 14004KT WIND THR31 11004KT BLU

TAF TAF LIRE
Valid from the 15 at 00:00 until the 15 at 09:00 UTC


142300Z 1500/1509 22008KT 8000 SCT020
TEMPO 1500/1509 5000 RA BR BKN015
TEMPO 1506/1509 2500 SHRA OVC010
No reported NOTAMs for that airfield.
4 SIGMETs reported for the Roma FIR (LIRR) :
 
Severe turbulence
LIRR SIGMET 9 VALID 142000/150000 LIIB
LIRR ROMA FIR SEV TURB FCST WI N4308 E01048 - N4248 E01207 - N4157 E01308 - N4037 E01521 - N4107 E01507 - N4130 E01416 - N4255 E01301 - N4328 E01312 - N4332 E01031 - N4308 E01048 FL020/100 STNR NC=
Severe turbulence
LIRR SIGMET 12 VALID 150000/150400 LIIB
LIRR ROMA FIR SEV TURB FCST WI N4306 E01051 - N4038 E01510 - N4107 E01507 - N4130 E01416 - N4255 E01301 - N4328 E01312 - N4340 E01113 - N4334 E01028 - N4306 E01051 FL020/100 STNR NC=
Severe turbulence
LIRR SIGMET 11 VALID 142000/150000 LIIB
LIRR ROMA FIR SEV TURB FCST WI N4306 E01051 - N4250 E01151 - N4037 E01521 - N4107 E01507 - N4130 E01416 - N4255 E01301 - N4328 E01312 - N4340 E01113 - N4335 E01028 - N4306 E01051 FL020/100 STNR NC=
SIGMET 9  cancelation
LIRR SIGMET 10 VALID 141944/150000 LIIB
LIRR ROMA FIR CNL SIGMET 9 142000/150000=



MET'MAP, your aeronautical weather chart ! - Copyright ORBIFLY December 2007 - Disclaimer

ORBIFLY MET'MAP TEAM :

Programming & Development : Alexandra Zaïnal
Concept & Development : Baudouin d'Aumeries
Co-Development & Prog : Marc-Olivier Méhu
Technical & hardware support : Manuel Goepfert

Contact : metmap@orbifly.com




SOURCES & CREDITS :

   NOAA